Time;durP1;ratioP1;P1;durP2;ratioP2;P2;SDS_P1;SDS_P2;PMS_P1;PMS_P2;Temp;Humidity;BMP_temperature;BMP_pressure;BME280_temperature;BME280_humidity;BME280_pressure;Samples;Min_cycle;Max_cycle;Signal;HPM_P1;HPM_P2
2023/05/09 00:01:12;;;;;;;3.63;3.43;;;;;;;13.80;74.37;95781.19;4342462;32;20212;-59
2023/05/09 00:03:38;;;;;;;4.43;4.13;;;;;;;13.70;74.54;95776.91;4349563;32;20272;-59
2023/05/09 00:06:05;;;;;;;3.07;2.87;;;;;;;13.62;74.88;95777.59;4362471;32;20337;-59
2023/05/09 00:08:31;;;;;;;4.70;4.40;;;;;;;13.39;75.74;95778.63;4362222;32;20242;-59
2023/05/09 00:10:56;;;;;;;2.73;2.57;;;;;;;13.47;75.75;95777.94;4338115;32;20219;-59
2023/05/09 00:13:23;;;;;;;4.23;4.00;;;;;;;13.46;75.71;95771.03;4355461;32;20200;-59
2023/05/09 00:15:49;;;;;;;4.57;4.27;;;;;;;13.51;74.85;95768.22;4356902;32;20235;-59
2023/05/09 00:18:14;;;;;;;3.97;3.67;;;;;;;13.35;75.30;95767.00;4339396;32;20198;-59
2023/05/09 00:20:40;;;;;;;3.47;3.27;;;;;;;13.54;74.83;95767.62;4356886;32;20301;-59
2023/05/09 00:23:06;;;;;;;4.97;4.00;;;;;;;13.48;74.47;95768.84;4343359;32;20215;-59
2023/05/09 00:25:32;;;;;;;3.37;3.20;;;;;;;13.54;74.05;95766.84;4343643;32;20223;-59
2023/05/09 00:27:57;;;;;;;3.70;3.50;;;;;;;13.38;74.94;95761.84;4357570;32;20201;-59
2023/05/09 00:30:22;;;;;;;3.30;3.10;;;;;;;13.56;73.69;95760.12;4346633;32;20189;-59
2023/05/09 00:32:48;;;;;;;4.47;4.17;;;;;;;13.54;73.45;95764.97;4363745;32;20193;-60
2023/05/09 00:35:13;;;;;;;4.33;4.03;;;;;;;13.54;73.43;95762.31;4361866;32;20194;-59
2023/05/09 00:37:38;;;;;;;3.97;3.67;;;;;;;13.31;73.95;95758.00;4364002;32;20258;-59
2023/05/09 00:40:06;;;;;;;9.63;3.00;;;;;;;13.48;73.33;95752.88;4358748;32;20236;-58
2023/05/09 00:42:32;;;;;;;3.10;2.90;;;;;;;13.40;73.65;95750.91;4339406;32;20197;-59
2023/05/09 00:44:57;;;;;;;4.20;3.67;;;;;;;13.44;73.50;95757.22;4361154;32;20272;-58
2023/05/09 00:47:23;;;;;;;3.40;3.17;;;;;;;13.36;73.80;95749.91;4355490;32;20247;-59
2023/05/09 00:49:49;;;;;;;3.93;3.40;;;;;;;13.38;73.53;95750.41;4346045;32;20201;-59
2023/05/09 00:52:15;;;;;;;5.07;4.67;;;;;;;13.44;73.15;95751.88;4356715;32;20253;-59
2023/05/09 00:54:40;;;;;;;3.53;3.00;;;;;;;13.44;73.51;95753.75;4357715;32;20178;-59
2023/05/09 00:57:06;;;;;;;3.13;2.97;;;;;;;13.44;73.82;95751.88;4346219;32;20207;-59
2023/05/09 00:59:31;;;;;;;3.10;3.00;;;;;;;13.33;74.38;95745.19;4356109;32;20189;-59
2023/05/09 01:01:57;;;;;;;3.63;3.37;;;;;;;13.26;74.80;95750.16;4359290;32;20240;-59
2023/05/09 01:04:22;;;;;;;3.27;3.07;;;;;;;13.28;74.70;95742.66;4337007;32;20245;-59
2023/05/09 01:07:01;;;;;;;2.77;2.67;;;;;;;13.21;74.75;95747.59;4342929;32;20235;-60
2023/05/09 01:10:04;;;;;;;3.97;3.57;;;;;;;13.23;74.58;95750.75;4345505;32;20251;-59
2023/05/09 01:12:45;;;;;;;3.63;3.33;;;;;;;13.05;74.95;95744.44;4341529;32;20189;-59
2023/05/09 01:15:25;;;;;;;3.07;2.87;;;;;;;12.99;75.28;95733.09;4336551;32;20185;-59
2023/05/09 01:18:06;;;;;;;2.63;2.53;;;;;;;13.13;75.08;95732.25;4332951;32;20207;-59
2023/05/09 01:20:36;;;;;;;2.17;2.07;;;;;;;12.98;75.49;95734.16;4339683;32;20181;-59
2023/05/09 01:23:29;;;;;;;2.70;2.60;;;;;;;13.04;75.20;95732.19;4327530;33;20208;-59
2023/05/09 01:26:03;;;;;;;3.43;3.20;;;;;;;13.04;75.15;95729.53;4344540;32;20233;-59
2023/05/09 01:29:07;;;;;;;3.90;3.60;;;;;;;13.04;75.31;95727.66;4338015;32;20205;-59
2023/05/09 01:31:36;;;;;;;3.70;3.50;;;;;;;12.92;75.73;95723.91;4312519;33;20198;-59
2023/05/09 01:34:07;;;;;;;1.87;1.83;;;;;;;12.96;75.89;95725.69;4331728;32;20204;-58
2023/05/09 01:36:35;;;;;;;2.83;2.73;;;;;;;13.00;75.04;95718.69;4347750;32;20181;-59
2023/05/09 01:39:03;;;;;;;3.53;3.33;;;;;;;13.02;74.87;95718.37;4348301;32;20243;-59
2023/05/09 01:41:30;;;;;;;2.80;2.70;;;;;;;12.97;74.70;95715.81;4328089;33;20201;-59
2023/05/09 01:44:00;;;;;;;2.17;2.07;;;;;;;13.11;74.17;95716.59;4338747;32;20190;-59
2023/05/09 01:46:27;;;;;;;3.53;2.93;;;;;;;13.02;74.57;95721.84;4315340;32;20229;-59
2023/05/09 01:48:53;;;;;;;2.07;1.97;;;;;;;12.93;74.64;95717.50;4325988;32;20189;-58
2023/05/09 01:51:20;;;;;;;3.17;2.63;;;;;;;13.06;74.72;95717.50;4326106;32;20190;-59
2023/05/09 01:53:47;;;;;;;4.40;4.10;;;;;;;13.00;75.00;95720.56;4347248;32;20185;-59
2023/05/09 01:56:14;;;;;;;3.47;3.37;;;;;;;12.72;75.75;95715.25;4330074;32;20269;-59
2023/05/09 01:58:40;;;;;;;3.83;3.57;;;;;;;12.89;75.81;95706.66;4339093;32;20198;-59
2023/05/09 02:01:06;;;;;;;3.27;3.07;;;;;;;12.80;76.03;95711.13;4327643;32;20258;-59
2023/05/09 02:03:34;;;;;;;2.87;2.77;;;;;;;12.83;76.22;95709.75;4334710;32;20270;-59
2023/05/09 02:06:02;;;;;;;3.10;3.00;;;;;;;12.84;76.18;95708.66;4346522;32;20193;-58
2023/05/09 02:08:28;;;;;;;2.00;2.00;;;;;;;12.81;76.24;95703.91;4359758;32;20216;-59
2023/05/09 02:10:53;;;;;;;3.67;3.33;;;;;;;12.85;75.69;95708.34;4342561;32;20194;-58
2023/05/09 02:13:19;;;;;;;3.13;2.93;;;;;;;12.86;75.74;95709.94;4336795;32;20200;-59
2023/05/09 02:15:46;;;;;;;3.60;3.40;;;;;;;12.83;75.79;95710.53;4355733;32;20207;-58
2023/05/09 02:18:12;;;;;;;3.13;2.93;;;;;;;12.77;75.95;95709.03;4337357;32;20190;-59
2023/05/09 02:20:38;;;;;;;2.47;2.37;;;;;;;12.73;76.33;95700.06;4344519;32;20340;-59
2023/05/09 02:23:03;;;;;;;3.40;3.10;;;;;;;12.73;76.48;95705.38;4353904;32;20262;-59
2023/05/09 02:25:30;;;;;;;2.90;2.80;;;;;;;12.76;76.11;95698.69;4357030;32;20315;-59
2023/05/09 02:27:58;;;;;;;2.40;2.30;;;;;;;12.69;76.69;95693.75;4361469;32;20201;-59
2023/05/09 02:30:25;;;;;;;3.93;3.57;;;;;;;12.68;76.69;95694.84;4344836;32;20212;-59
2023/05/09 02:32:57;;;;;;;3.00;2.80;;;;;;;12.59;76.86;95696.63;4331585;32;20189;-59
2023/05/09 02:35:24;;;;;;;2.90;2.80;;;;;;;12.53;77.86;95695.16;4351916;32;20252;-59
2023/05/09 02:37:51;;;;;;;2.17;2.13;;;;;;;12.59;77.16;95689.44;4361696;32;20196;-58
2023/05/09 02:40:18;;;;;;;2.17;2.07;;;;;;;12.66;76.85;95691.72;4361209;32;20208;-59
2023/05/09 02:42:43;;;;;;;2.53;2.43;;;;;;;12.31;77.77;95687.84;4354977;32;20193;-58
2023/05/09 02:45:10;;;;;;;3.47;3.17;;;;;;;12.48;77.25;95687.25;4360512;32;20207;-59
2023/05/09 02:47:35;;;;;;;3.27;3.17;;;;;;;12.46;77.39;95684.12;4330852;32;20240;-59
2023/05/09 02:50:01;;;;;;;2.73;2.63;;;;;;;12.43;77.52;95682.84;4340199;32;20254;-59
2023/05/09 02:52:26;;;;;;;3.97;3.67;;;;;;;12.50;77.12;95680.56;4361152;32;20199;-59
2023/05/09 02:54:51;;;;;;;3.93;3.63;;;;;;;12.45;77.24;95685.22;4345990;32;20207;-58
2023/05/09 02:57:17;;;;;;;2.90;2.80;;;;;;;12.44;77.09;95671.13;4349782;32;20259;-59
2023/05/09 02:59:42;;;;;;;3.43;2.83;;;;;;;12.48;77.09;95676.59;4345020;32;20193;-59
2023/05/09 03:02:07;;;;;;;3.17;2.67;;;;;;;12.43;77.10;95671.41;4357538;32;20272;-59
2023/05/09 03:04:34;;;;;;;3.33;2.93;;;;;;;12.18;78.27;95673.47;4344802;32;20193;-58
2023/05/09 03:07:00;;;;;;;3.27;3.00;;;;;;;12.09;79.28;95669.09;4357519;32;20241;-59
2023/05/09 03:09:25;;;;;;;2.60;2.50;;;;;;;12.23;78.11;95670.72;4336386;32;20189;-58
2023/05/09 03:11:50;;;;;;;2.20;2.10;;;;;;;12.29;77.73;95669.50;4349089;32;20277;-59
2023/05/09 03:14:16;;;;;;;2.77;2.67;;;;;;;12.36;77.50;95663.81;4348084;32;20193;-59
2023/05/09 03:16:41;;;;;;;2.37;2.27;;;;;;;12.26;78.02;95672.75;4336031;32;20201;-58
2023/05/09 03:19:07;;;;;;;4.27;3.97;;;;;;;12.12;78.96;95671.97;4337990;32;20239;-58
2023/05/09 03:21:32;;;;;;;2.50;2.40;;;;;;;12.20;78.23;95676.62;4360639;32;20224;-60
2023/05/09 03:23:58;;;;;;;3.83;2.93;;;;;;;12.25;77.95;95660.56;4358422;32;20193;-59
2023/05/09 03:26:25;;;;;;;2.83;2.73;;;;;;;12.28;77.62;95673.25;4338412;32;20189;-59
2023/05/09 03:28:50;;;;;;;2.77;2.63;;;;;;;12.24;77.72;95672.28;4345860;32;20204;-58
2023/05/09 03:31:16;;;;;;;3.30;3.10;;;;;;;12.25;77.51;95668.56;4354668;32;20205;-58
2023/05/09 03:33:41;;;;;;;3.00;2.80;;;;;;;12.26;77.34;95662.13;4346665;32;20189;-58
2023/05/09 03:36:07;;;;;;;3.33;3.03;;;;;;;12.18;77.69;95662.81;4357408;32;20205;-58
2023/05/09 03:38:32;;;;;;;3.00;2.77;;;;;;;12.19;78.01;95668.94;4340272;32;20198;-58
2023/05/09 03:40:58;;;;;;;3.43;3.20;;;;;;;12.00;79.29;95667.13;4345949;32;20196;-58
2023/05/09 03:43:23;;;;;;;3.00;2.90;;;;;;;11.92;79.76;95664.34;4350176;32;20189;-58
2023/05/09 03:45:48;;;;;;;2.80;2.17;;;;;;;11.86;79.57;95666.31;4350357;32;20189;-59
2023/05/09 03:48:15;;;;;;;3.83;2.90;;;;;;;11.93;78.83;95663.28;4349349;32;20208;-58
2023/05/09 03:50:40;;;;;;;3.50;3.30;;;;;;;11.99;78.63;95670.09;4347317;32;20199;-58
2023/05/09 03:53:06;;;;;;;3.63;3.40;;;;;;;12.12;78.13;95669.31;4356756;32;20181;-58
2023/05/09 03:55:31;;;;;;;2.57;2.47;;;;;;;12.04;78.22;95664.69;4350231;32;20219;-58
2023/05/09 03:57:56;;;;;;;3.07;2.97;;;;;;;12.12;77.78;95671.19;4364520;32;20212;-58
2023/05/09 04:00:22;;;;;;;6.87;3.47;;;;;;;12.08;77.77;95665.66;4346939;32;20203;-58
2023/05/09 04:02:47;;;;;;;3.43;2.63;;;;;;;12.00;78.09;95663.69;4362084;32;20189;-59
2023/05/09 04:05:14;;;;;;;2.27;2.17;;;;;;;11.75;79.02;95670.19;4356247;32;20190;-59
2023/05/09 04:07:40;;;;;;;3.37;3.17;;;;;;;11.68;79.28;95669.78;4355717;32;20189;-59
2023/05/09 04:10:06;;;;;;;3.07;2.90;;;;;;;11.80;79.33;95669.38;4336285;32;20255;-58
2023/05/09 04:12:31;;;;;;;22.47;3.27;;;;;;;11.71;79.67;95674.50;4341758;32;20189;-58
2023/05/09 04:14:57;;;;;;;3.40;3.30;;;;;;;11.84;79.25;95667.72;4338063;32;20201;-58
2023/05/09 04:17:22;;;;;;;3.93;3.73;;;;;;;11.77;79.91;95678.72;4336225;32;20193;-58
2023/05/09 04:19:48;;;;;;;3.97;3.77;;;;;;;11.75;79.83;95675.50;4338107;32;20242;-60
2023/05/09 04:22:13;;;;;;;12.33;4.23;;;;;;;11.62;80.67;95677.06;4358362;32;20214;-58
2023/05/09 04:24:38;;;;;;;4.07;3.80;;;;;;;11.84;79.72;95678.34;4349860;32;20189;-59
2023/05/09 04:27:04;;;;;;;3.50;3.30;;;;;;;11.93;79.31;95676.56;4349089;32;20202;-58
2023/05/09 04:29:30;;;;;;;3.60;3.40;;;;;;;11.99;79.15;95686.03;4350886;32;20261;-58
2023/05/09 04:31:55;;;;;;;3.70;3.47;;;;;;;12.01;79.08;95673.25;4330851;32;20229;-58
2023/05/09 04:34:20;;;;;;;3.57;3.37;;;;;;;12.09;78.83;95675.22;4337616;32;20219;-59
2023/05/09 04:36:46;;;;;;;2.43;2.30;;;;;;;12.13;78.90;95670.88;4336516;32;20211;-59
2023/05/09 04:39:11;;;;;;;6.47;3.93;;;;;;;12.16;83.86;95678.28;4340682;32;20211;-58
2023/05/09 04:41:37;;;;;;;3.63;3.33;;;;;;;12.55;91.68;95677.81;4347732;32;20257;-59
2023/05/09 04:44:02;;;;;;;3.40;3.23;;;;;;;12.65;90.73;95674.94;4336616;32;20243;-58
2023/05/09 04:46:27;;;;;;;7.20;3.87;;;;;;;12.70;88.35;95668.72;4351327;32;20269;-58
2023/05/09 04:48:53;;;;;;;3.50;3.20;;;;;;;13.05;90.29;95664.53;4346144;32;20192;-58
2023/05/09 04:51:18;;;;;;;3.10;2.90;;;;;;;12.79;88.54;95666.94;4314333;32;20209;-59
2023/05/09 04:53:44;;;;;;;3.77;3.57;;;;;;;13.07;88.80;95663.16;4341296;32;20193;-58
2023/05/09 04:56:10;;;;;;;3.00;2.73;;;;;;;13.05;87.66;95662.66;4349588;32;20186;-58
2023/05/09 04:58:39;;;;;;;3.67;3.47;;;;;;;13.12;85.78;95664.09;4337750;32;20247;-58
2023/05/09 05:01:05;;;;;;;4.50;4.13;;;;;;;13.53;86.80;95656.78;4335581;32;20201;-58
2023/05/09 05:03:31;;;;;;;2.40;2.30;;;;;;;13.28;84.17;95660.06;4355137;32;20198;-58
2023/05/09 05:05:56;;;;;;;4.03;3.73;;;;;;;13.21;84.88;95665.00;4353981;32;20198;-59
2023/05/09 05:08:22;;;;;;;3.43;3.30;;;;;;;13.40;84.89;95658.41;4362256;32;20207;-58
2023/05/09 05:10:48;;;;;;;4.27;3.87;;;;;;;13.46;86.19;95652.97;4361958;32;20198;-58
2023/05/09 05:13:14;;;;;;;4.43;3.07;;;;;;;13.55;82.40;95651.13;4341155;32;20185;-58
2023/05/09 05:15:40;;;;;;;2.90;2.73;;;;;;;13.52;84.05;95660.53;4327499;32;20318;-58
2023/05/09 05:18:05;;;;;;;4.17;3.87;;;;;;;13.58;82.81;95650.53;4360375;32;20247;-58
2023/05/09 05:20:30;;;;;;;2.10;2.00;;;;;;;13.57;82.07;95646.28;4356758;32;20257;-58
2023/05/09 05:22:57;;;;;;;3.93;3.40;;;;;;;13.60;82.18;95651.03;4346198;32;20197;-58
2023/05/09 05:25:24;;;;;;;3.90;3.60;;;;;;;13.82;84.15;95655.53;4358226;32;20201;-58
2023/05/09 05:27:49;;;;;;;3.47;3.27;;;;;;;13.97;81.74;95652.50;4355167;32;20193;-58
2023/05/09 05:30:15;;;;;;;1.87;1.77;;;;;;;13.72;80.70;95646.69;4360267;32;20227;-58
2023/05/09 05:32:40;;;;;;;3.37;3.27;;;;;;;13.69;80.56;95643.88;4358052;32;20193;-58
2023/05/09 05:35:06;;;;;;;7.40;3.07;;;;;;;13.67;82.11;95644.19;4347493;32;20213;-58
2023/05/09 05:37:31;;;;;;;2.93;2.77;;;;;;;13.89;84.73;95651.38;4359993;32;20205;-58
2023/05/09 05:39:57;;;;;;;3.80;3.50;;;;;;;13.65;79.26;95640.25;4345719;32;20213;-58
2023/05/09 05:42:22;;;;;;;2.20;2.13;;;;;;;13.62;80.58;95654.16;4356130;32;20190;-58
2023/05/09 05:44:47;;;;;;;7.63;3.03;;;;;;;13.93;82.49;95656.84;4351084;32;20196;-58
2023/05/09 05:47:13;;;;;;;2.00;1.90;;;;;;;13.91;80.60;95653.72;4342220;32;20196;-59
2023/05/09 05:49:38;;;;;;;2.40;2.30;;;;;;;14.06;80.65;95650.66;4362098;32;20204;-58
2023/05/09 05:52:03;;;;;;;2.77;2.57;;;;;;;13.84;79.54;95651.50;4354650;32;20189;-58
2023/05/09 05:54:29;;;;;;;3.80;2.73;;;;;;;13.97;79.87;95652.50;4359617;32;20224;-58
2023/05/09 05:56:55;;;;;;;2.23;2.00;;;;;;;13.94;79.98;95651.22;4361299;32;20390;-58
2023/05/09 05:59:20;;;;;;;2.50;2.40;;;;;;;14.13;80.29;95639.56;4347158;32;20257;-58
2023/05/09 06:01:45;;;;;;;2.03;2.00;;;;;;;14.19;79.55;95633.75;4356612;32;20189;-58
2023/05/09 06:04:10;;;;;;;3.60;3.30;;;;;;;14.43;81.44;95631.53;4360074;32;20245;-58
2023/05/09 06:06:36;;;;;;;3.23;3.03;;;;;;;14.10;78.18;95630.28;4342644;32;20228;-58
2023/05/09 06:09:01;;;;;;;4.10;2.83;;;;;;;14.31;79.52;95630.53;4344842;32;20196;-58
2023/05/09 06:11:27;;;;;;;2.43;1.70;;;;;;;14.19;78.28;95631.09;4360253;32;20252;-59
2023/05/09 06:13:52;;;;;;;3.23;3.13;;;;;;;14.25;77.34;95623.75;4346616;32;20260;-58
2023/05/09 06:16:17;;;;;;;2.83;2.63;;;;;;;14.34;77.68;95627.25;4363938;32;20204;-58
2023/05/09 06:18:43;;;;;;;2.73;2.60;;;;;;;14.26;76.95;95623.44;4345356;32;20230;-59
2023/05/09 06:21:08;;;;;;;2.97;2.87;;;;;;;14.43;77.62;95610.16;4354958;32;20284;-58
2023/05/09 06:23:35;;;;;;;3.23;2.97;;;;;;;14.56;76.89;95618.34;4338795;32;20239;-58
2023/05/09 06:26:02;;;;;;;2.83;2.70;;;;;;;14.64;75.45;95612.25;4340275;32;20193;-58
2023/05/09 06:28:27;;;;;;;3.10;2.90;;;;;;;14.65;75.50;95613.84;4347895;32;20215;-58
2023/05/09 06:30:52;;;;;;;2.53;2.43;;;;;;;14.97;75.91;95609.94;4334825;32;20264;-58
2023/05/09 06:33:17;;;;;;;2.30;2.20;;;;;;;14.97;75.70;95604.59;4359502;32;20205;-58
2023/05/09 06:35:43;;;;;;;3.40;3.13;;;;;;;14.85;71.48;95612.44;4326976;32;20200;-61
2023/05/09 06:38:08;;;;;;;3.20;3.00;;;;;;;14.88;71.95;95607.28;4343842;32;20291;-58
2023/05/09 06:40:33;;;;;;;2.27;2.17;;;;;;;14.83;73.35;95610.09;4359049;32;20193;-58
2023/05/09 06:42:59;;;;;;;2.93;2.43;;;;;;;15.06;73.98;95608.84;4343772;32;20243;-58
2023/05/09 06:45:25;;;;;;;3.73;3.47;;;;;;;15.24;74.60;95598.16;4350979;32;20207;-58
2023/05/09 06:47:51;;;;;;;3.17;2.97;;;;;;;15.00;69.77;95599.41;4334623;32;20185;-59
2023/05/09 06:50:16;;;;;;;3.23;3.03;;;;;;;15.11;74.55;95602.56;4363310;32;20250;-58
2023/05/09 06:52:41;;;;;;;2.23;2.13;;;;;;;15.01;72.80;95595.63;4346073;32;20243;-58
2023/05/09 06:55:08;;;;;;;3.40;3.20;;;;;;;15.21;74.48;95593.44;4361252;32;20250;-58
2023/05/09 06:57:33;;;;;;;2.13;2.13;;;;;;;15.23;75.76;95586.66;4355388;32;20188;-59
2023/05/09 06:59:58;;;;;;;2.80;2.70;;;;;;;15.10;72.02;95585.75;4352844;32;20193;-58
2023/05/09 07:02:24;;;;;;;3.73;3.53;;;;;;;15.11;74.49;95589.22;4339691;32;20207;-57
2023/05/09 07:04:50;;;;;;;2.70;2.57;;;;;;;15.29;72.71;95590.75;4341135;32;20204;-58
2023/05/09 07:07:15;;;;;;;2.13;2.03;;;;;;;15.04;72.47;95587.00;4356414;32;20185;-56
2023/05/09 07:09:40;;;;;;;2.47;2.37;;;;;;;15.07;71.93;95589.03;4357590;32;20239;-55
2023/05/09 07:12:06;;;;;;;2.97;2.77;;;;;;;14.94;77.07;95581.97;4342980;32;20208;-57
2023/05/09 07:14:31;;;;;;;3.97;3.77;;;;;;;14.91;76.65;95585.28;4348047;32;20197;-57
2023/05/09 07:16:56;;;;;;;5.03;4.17;;;;;;;14.62;73.93;95587.75;4351773;32;20193;-56
2023/05/09 07:19:22;;;;;;;3.03;2.90;;;;;;;14.81;72.66;95582.91;4347997;32;20217;-56
2023/05/09 07:21:47;;;;;;;3.13;2.93;;;;;;;14.84;75.05;95581.50;4344981;32;20189;-58
2023/05/09 07:24:12;;;;;;;3.47;3.20;;;;;;;14.94;77.76;95576.62;4360793;32;20181;-58
2023/05/09 07:26:38;;;;;;;3.27;2.43;;;;;;;15.00;74.80;95574.56;4340291;32;20302;-59
2023/05/09 07:29:03;;;;;;;2.33;2.23;;;;;;;14.97;74.68;95567.97;4337951;32;20200;-57
2023/05/09 07:31:29;;;;;;;3.03;2.93;;;;;;;15.03;76.31;95561.38;4344271;32;20189;-58
2023/05/09 07:33:54;;;;;;;3.97;3.67;;;;;;;15.07;73.38;95567.66;4354079;32;20239;-60
2023/05/09 07:36:20;;;;;;;3.47;3.30;;;;;;;15.16;74.83;95551.63;4337679;32;20196;-59
2023/05/09 07:38:46;;;;;;;2.87;2.73;;;;;;;15.04;74.59;95560.28;4358830;32;20193;-60
2023/05/09 07:41:16;;;;;;;4.10;3.80;;;;;;;15.05;74.45;95553.03;4358454;32;20189;-59
2023/05/09 07:43:41;;;;;;;4.00;3.60;;;;;;;15.14;73.81;95553.84;4335717;32;20197;-60
2023/05/09 07:46:06;;;;;;;3.00;2.90;;;;;;;15.49;72.59;95554.56;4346656;32;20192;-59
2023/05/09 07:48:32;;;;;;;3.97;3.77;;;;;;;15.80;74.47;95547.09;4353851;32;20256;-58
2023/05/09 07:50:57;;;;;;;2.70;2.60;;;;;;;15.73;71.57;95546.81;4337028;32;20211;-59
2023/05/09 07:53:23;;;;;;;2.20;2.10;;;;;;;15.93;72.47;95544.53;4359418;32;20272;-54
2023/05/09 07:55:49;;;;;;;3.50;3.13;;;;;;;16.15;73.71;95537.03;4362716;32;20231;-59
2023/05/09 07:58:17;;;;;;;7.20;2.53;;;;;;;16.20;73.27;95538.75;4360692;32;20205;-58
2023/05/09 08:00:42;;;;;;;2.30;2.20;;;;;;;16.16;72.38;95537.81;4345751;32;20213;-57
2023/05/09 08:03:08;;;;;;;2.13;2.03;;;;;;;16.67;75.29;95535.94;4343324;32;22744;-60
2023/05/09 08:05:33;;;;;;;3.53;2.87;;;;;;;16.57;72.36;95539.00;4354223;32;20239;-59
2023/05/09 08:07:58;;;;;;;2.03;2.00;;;;;;;16.55;72.92;95528.59;4361259;32;20189;-56
2023/05/09 08:10:25;;;;;;;2.57;2.40;;;;;;;16.57;74.26;95523.72;4342174;32;20189;-57
2023/05/09 08:12:51;;;;;;;2.50;2.40;;;;;;;16.39;71.31;95523.03;4352632;32;20188;-58
2023/05/09 08:15:16;;;;;;;2.83;2.50;;;;;;;16.44;70.61;95519.37;4351341;32;20199;-58
2023/05/09 08:17:42;;;;;;;5.23;2.70;;;;;;;16.65;73.07;95506.78;4340576;32;20257;-53
2023/05/09 08:20:07;;;;;;;2.63;2.43;;;;;;;16.74;72.23;95514.78;4345049;32;20205;-58
2023/05/09 08:22:33;;;;;;;2.40;2.30;;;;;;;16.92;71.66;95504.69;4349251;32;20254;-58
2023/05/09 08:24:58;;;;;;;2.20;2.10;;;;;;;16.81;71.11;95507.78;4355248;32;20292;-58
2023/05/09 08:27:24;;;;;;;2.30;2.20;;;;;;;16.74;70.16;95510.22;4345471;32;20240;-58
2023/05/09 08:29:49;;;;;;;2.00;1.90;;;;;;;16.54;70.94;95505.59;4362802;32;20197;-59
2023/05/09 08:32:14;;;;;;;3.40;2.73;;;;;;;16.27;71.92;95501.53;4350623;32;20211;-59
2023/05/09 08:34:40;;;;;;;2.23;2.13;;;;;;;16.22;73.16;95498.25;4358566;32;20193;-58
2023/05/09 08:37:05;;;;;;;2.90;2.70;;;;;;;16.25;72.56;95498.38;4343856;32;20259;-58
2023/05/09 08:39:30;;;;;;;2.17;2.07;;;;;;;16.35;72.01;95489.97;4359735;32;20299;-58
2023/05/09 08:41:59;;;;;;;3.10;2.93;;;;;;;16.44;72.43;95490.69;4338919;32;20241;-58
2023/05/09 08:44:25;;;;;;;2.77;2.60;;;;;;;16.43;72.27;95488.34;4362507;32;20236;-58
2023/05/09 08:46:54;;;;;;;2.23;2.13;;;;;;;16.40;73.13;95487.13;4347541;32;20195;-58
2023/05/09 08:49:20;;;;;;;1.90;1.83;;;;;;;16.44;73.49;95488.00;4362069;32;20192;-59
2023/05/09 08:51:47;;;;;;;2.00;2.00;;;;;;;16.50;73.10;95478.69;4351319;32;20184;-58
2023/05/09 08:54:14;;;;;;;2.60;2.50;;;;;;;16.59;73.26;95480.53;4339498;32;20232;-59
2023/05/09 08:56:40;;;;;;;3.37;3.17;;;;;;;16.56;73.95;95481.97;4356552;32;20314;-58
2023/05/09 08:59:05;;;;;;;2.53;2.43;;;;;;;16.49;73.26;95474.44;4340113;32;20212;-59
2023/05/09 09:01:33;;;;;;;3.37;3.17;;;;;;;16.47;72.70;95468.63;4358444;32;20197;-58
2023/05/09 09:04:00;;;;;;;2.70;2.60;;;;;;;16.56;72.32;95470.47;4358832;32;20259;-58
2023/05/09 09:06:28;;;;;;;4.17;3.87;;;;;;;16.63;72.43;95462.66;4349256;32;20245;-59
2023/05/09 09:08:55;;;;;;;2.57;2.47;;;;;;;16.53;72.31;95455.81;4349030;32;20216;-59
2023/05/09 09:11:21;;;;;;;2.30;2.20;;;;;;;16.68;72.30;95457.13;4343572;32;20224;-59
2023/05/09 09:13:51;;;;;;;2.40;2.30;;;;;;;16.87;71.57;95454.75;4346293;32;20207;-58
2023/05/09 09:16:19;;;;;;;2.37;2.20;;;;;;;16.93;71.52;95448.09;4344915;32;20204;-59
2023/05/09 09:18:46;;;;;;;3.40;3.13;;;;;;;16.97;71.74;95443.63;4332567;32;20197;-59
2023/05/09 09:21:18;;;;;;;2.27;2.17;;;;;;;17.10;70.22;95445.22;4345364;32;20306;-58
2023/05/09 09:23:46;;;;;;;2.57;2.47;;;;;;;16.87;71.39;95449.41;4348761;32;20205;-59
2023/05/09 09:26:12;;;;;;;2.43;2.33;;;;;;;17.02;70.63;95446.13;4346923;32;20200;-58
2023/05/09 09:28:37;;;;;;;6.37;3.07;;;;;;;16.97;70.87;95440.19;4362123;32;20255;-58
2023/05/09 09:31:21;;;;;;;3.10;2.97;;;;;;;17.08;70.41;95435.94;4362760;32;20189;-59
2023/05/09 09:33:47;;;;;;;2.90;2.80;;;;;;;17.22;70.34;95436.44;4344207;32;20193;-59
2023/05/09 09:36:12;;;;;;;2.97;2.87;;;;;;;17.24;69.94;95420.03;4351114;32;20252;-59
2023/05/09 09:38:44;;;;;;;2.40;2.30;;;;;;;17.34;69.13;95424.94;4343277;32;22904;-58
2023/05/09 09:41:11;;;;;;;3.33;3.20;;;;;;;17.36;69.78;95414.66;4342810;32;20257;-58
2023/05/09 09:43:37;;;;;;;2.87;2.57;;;;;;;17.44;70.50;95419.16;4348142;32;20232;-58
2023/05/09 09:46:03;;;;;;;2.73;2.53;;;;;;;17.51;71.14;95405.97;4345547;32;20200;-59
2023/05/09 09:48:34;;;;;;;1.70;1.67;;;;;;;17.55;70.33;95398.03;4340853;32;20216;-59
2023/05/09 09:51:10;;;;;;;3.30;3.10;;;;;;;17.69;69.94;95393.91;4344501;32;20223;-58
2023/05/09 09:53:40;;;;;;;3.30;3.10;;;;;;;17.81;68.90;95398.50;4353916;32;20193;-59
2023/05/09 09:56:06;;;;;;;2.00;2.00;;;;;;;17.63;69.12;95395.25;4335471;32;20245;-58
2023/05/09 09:58:31;;;;;;;3.40;3.13;;;;;;;17.62;69.30;95388.31;4346815;32;20306;-59
2023/05/09 10:01:06;;;;;;;2.73;2.53;;;;;;;17.71;69.59;95385.53;4345398;32;20209;-58
2023/05/09 10:03:36;;;;;;;2.80;2.60;;;;;;;17.72;69.09;95381.72;4319537;32;20189;-58
2023/05/09 10:06:01;;;;;;;2.73;2.53;;;;;;;17.78;69.48;95370.44;4345547;32;20189;-59
2023/05/09 10:08:27;;;;;;;2.30;2.20;;;;;;;17.89;69.63;95367.28;4347468;32;20215;-59
2023/05/09 10:10:52;;;;;;;2.37;2.17;;;;;;;18.01;70.07;95372.63;4346449;32;20184;-58
2023/05/09 10:13:18;;;;;;;2.67;2.57;;;;;;;18.00;69.19;95371.84;4348336;32;20207;-58
2023/05/09 10:15:43;;;;;;;5.13;4.83;;;;;;;18.13;68.92;95365.31;4336660;32;20194;-59
2023/05/09 10:18:11;;;;;;;2.57;2.37;;;;;;;18.23;67.94;95360.59;4344571;32;20341;-59
2023/05/09 10:20:39;;;;;;;2.93;2.70;;;;;;;18.24;68.99;95362.16;4361166;32;20285;-59
2023/05/09 10:23:05;;;;;;;1.87;1.77;;;;;;;18.29;67.82;95351.94;4334188;32;20193;-59
2023/05/09 10:25:41;;;;;;;3.30;2.40;;;;;;;18.29;68.40;95348.50;4327387;32;20227;-59
2023/05/09 10:28:11;;;;;;;2.30;2.20;;;;;;;18.29;67.65;95343.13;4345835;32;20247;-58
2023/05/09 10:30:52;;;;;;;2.43;2.33;;;;;;;18.15;68.38;95340.81;4361251;32;20256;-59
2023/05/09 10:33:22;;;;;;;2.50;2.40;;;;;;;18.22;69.13;95332.97;4350878;32;20207;-59
2023/05/09 10:35:49;;;;;;;2.50;2.40;;;;;;;18.30;68.24;95329.34;4360582;32;20212;-58
2023/05/09 10:38:15;;;;;;;3.70;3.40;;;;;;;18.31;68.41;95325.53;4331715;32;20292;-58
2023/05/09 10:40:40;;;;;;;2.60;2.50;;;;;;;18.36;67.88;95330.66;4346928;32;20184;-58
2023/05/09 10:43:07;;;;;;;2.50;2.40;;;;;;;18.50;67.74;95325.66;4358326;32;20259;-57
2023/05/09 10:45:33;;;;;;;2.57;2.47;;;;;;;18.46;67.99;95324.81;4334423;32;20213;-58
2023/05/09 10:48:02;;;;;;;4.20;2.80;;;;;;;18.39;67.85;95321.16;4343015;32;20239;-58
2023/05/09 10:50:30;;;;;;;2.50;2.40;;;;;;;18.44;68.03;95319.00;4361938;32;20193;-58
2023/05/09 10:53:02;;;;;;;3.37;3.23;;;;;;;18.50;67.35;95301.50;4344286;32;20181;-58
2023/05/09 10:55:51;;;;;;;3.93;3.73;;;;;;;18.34;67.89;95306.06;4347156;32;20209;-58
2023/05/09 10:58:32;;;;;;;4.43;4.23;;;;;;;18.43;67.69;95304.00;4353628;32;20208;-58
2023/05/09 11:00:59;;;;;;;3.73;3.53;;;;;;;18.29;68.20;95292.09;4321065;32;20192;-58
2023/05/09 11:03:27;;;;;;;5.57;3.77;;;;;;;18.36;68.51;95292.28;4348459;32;20194;-58
2023/05/09 11:05:55;;;;;;;2.57;2.43;;;;;;;18.29;67.93;95282.13;4360494;32;20193;-58
2023/05/09 11:08:24;;;;;;;3.73;3.43;;;;;;;18.33;67.77;95284.91;4340946;32;20215;-58
2023/05/09 11:10:51;;;;;;;3.97;3.67;;;;;;;18.48;67.39;95284.97;4345656;32;20196;-59
2023/05/09 11:13:22;;;;;;;3.17;3.07;;;;;;;18.54;67.44;95272.03;4349808;32;20197;-58
2023/05/09 11:16:00;;;;;;;3.37;3.17;;;;;;;18.64;66.77;95265.41;4338771;32;20197;-58
2023/05/09 11:18:27;;;;;;;6.87;3.93;;;;;;;18.73;66.58;95261.41;4335678;32;20283;-58
2023/05/09 11:20:53;;;;;;;5.93;4.47;;;;;;;18.78;66.36;95263.84;4359271;32;20188;-58
2023/05/09 11:23:20;;;;;;;4.47;4.07;;;;;;;18.80;66.11;95248.16;4360100;32;20223;-59
2023/05/09 11:25:46;;;;;;;5.30;4.80;;;;;;;18.73;66.95;95249.88;4344204;32;20248;-59
2023/05/09 11:28:27;;;;;;;4.47;4.17;;;;;;;18.81;66.96;95238.97;4345763;32;20231;-58
2023/05/09 11:30:52;;;;;;;3.83;3.63;;;;;;;18.84;67.38;95226.75;4340631;32;20211;-59
2023/05/09 11:33:28;;;;;;;3.57;3.37;;;;;;;18.83;66.40;95225.97;4362720;32;20192;-58